sensor_id;sensor_type;location;lat;lon;timestamp;P1;durP1;ratioP1;P2;durP2;ratioP2
78489;SDS011;67776;52.012;4.736;2023-07-31T00:00:50;35.22;;;7.40;;
78489;SDS011;67776;52.012;4.736;2023-07-31T00:03:15;29.80;;;6.83;;
78489;SDS011;67776;52.012;4.736;2023-07-31T00:05:40;30.87;;;6.57;;
78489;SDS011;67776;52.012;4.736;2023-07-31T00:08:06;35.00;;;6.93;;
78489;SDS011;67776;52.012;4.736;2023-07-31T00:10:31;28.73;;;6.40;;
78489;SDS011;67776;52.012;4.736;2023-07-31T00:12:56;29.13;;;6.67;;
78489;SDS011;67776;52.012;4.736;2023-07-31T00:15:22;23.37;;;5.70;;
78489;SDS011;67776;52.012;4.736;2023-07-31T00:17:47;34.70;;;6.73;;
78489;SDS011;67776;52.012;4.736;2023-07-31T00:20:12;21.27;;;5.60;;
78489;SDS011;67776;52.012;4.736;2023-07-31T00:22:38;27.83;;;6.20;;
78489;SDS011;67776;52.012;4.736;2023-07-31T00:25:03;22.67;;;5.70;;
78489;SDS011;67776;52.012;4.736;2023-07-31T00:27:31;28.38;;;6.53;;
78489;SDS011;67776;52.012;4.736;2023-07-31T00:29:56;31.05;;;6.70;;
78489;SDS011;67776;52.012;4.736;2023-07-31T00:32:22;29.63;;;6.17;;
78489;SDS011;67776;52.012;4.736;2023-07-31T00:34:47;28.67;;;6.30;;
78489;SDS011;67776;52.012;4.736;2023-07-31T00:37:12;28.57;;;6.07;;
78489;SDS011;67776;52.012;4.736;2023-07-31T00:39:38;29.07;;;6.47;;
78489;SDS011;67776;52.012;4.736;2023-07-31T00:42:03;29.10;;;6.53;;
78489;SDS011;67776;52.012;4.736;2023-07-31T00:44:29;31.10;;;6.75;;
78489;SDS011;67776;52.012;4.736;2023-07-31T00:46:54;29.37;;;6.77;;
78489;SDS011;67776;52.012;4.736;2023-07-31T00:49:21;28.13;;;7.07;;
78489;SDS011;67776;52.012;4.736;2023-07-31T00:51:47;30.80;;;6.67;;
78489;SDS011;67776;52.012;4.736;2023-07-31T00:54:13;30.70;;;7.13;;
78489;SDS011;67776;52.012;4.736;2023-07-31T00:56:38;30.20;;;6.37;;
78489;SDS011;67776;52.012;4.736;2023-07-31T00:59:05;25.17;;;6.45;;
78489;SDS011;67776;52.012;4.736;2023-07-31T01:01:31;28.93;;;6.17;;
78489;SDS011;67776;52.012;4.736;2023-07-31T01:03:56;31.77;;;7.20;;
78489;SDS011;67776;52.012;4.736;2023-07-31T01:06:33;38.10;;;8.00;;
78489;SDS011;67776;52.012;4.736;2023-07-31T01:11:51;30.70;;;7.30;;
78489;SDS011;67776;52.012;4.736;2023-07-31T01:14:21;28.63;;;7.07;;
78489;SDS011;67776;52.012;4.736;2023-07-31T01:16:46;27.57;;;6.50;;
78489;SDS011;67776;52.012;4.736;2023-07-31T01:19:12;18.23;;;5.13;;
78489;SDS011;67776;52.012;4.736;2023-07-31T01:28:07;16.60;;;4.00;;
78489;SDS011;67776;52.012;4.736;2023-07-31T01:30:37;15.77;;;4.15;;
78489;SDS011;67776;52.012;4.736;2023-07-31T01:33:08;21.27;;;4.88;;
78489;SDS011;67776;52.012;4.736;2023-07-31T01:35:34;19.75;;;4.95;;
78489;SDS011;67776;52.012;4.736;2023-07-31T01:38:01;20.37;;;5.37;;
78489;SDS011;67776;52.012;4.736;2023-07-31T01:40:26;26.98;;;5.63;;
78489;SDS011;67776;52.012;4.736;2023-07-31T01:42:51;27.83;;;6.00;;
78489;SDS011;67776;52.012;4.736;2023-07-31T01:45:17;28.83;;;5.83;;
78489;SDS011;67776;52.012;4.736;2023-07-31T01:47:42;25.33;;;6.17;;
78489;SDS011;67776;52.012;4.736;2023-07-31T01:50:08;27.77;;;6.80;;
78489;SDS011;67776;52.012;4.736;2023-07-31T01:52:33;29.08;;;7.03;;
78489;SDS011;67776;52.012;4.736;2023-07-31T01:54:59;26.90;;;6.90;;
78489;SDS011;67776;52.012;4.736;2023-07-31T01:57:24;24.10;;;6.20;;
78489;SDS011;67776;52.012;4.736;2023-07-31T01:59:49;23.63;;;5.57;;
78489;SDS011;67776;52.012;4.736;2023-07-31T02:02:15;36.03;;;6.40;;
78489;SDS011;67776;52.012;4.736;2023-07-31T02:04:41;26.60;;;5.57;;
78489;SDS011;67776;52.012;4.736;2023-07-31T02:07:06;24.40;;;5.77;;
78489;SDS011;67776;52.012;4.736;2023-07-31T02:09:32;25.67;;;6.10;;
78489;SDS011;67776;52.012;4.736;2023-07-31T02:11:57;24.67;;;6.13;;
78489;SDS011;67776;52.012;4.736;2023-07-31T02:14:22;27.23;;;5.97;;
78489;SDS011;67776;52.012;4.736;2023-07-31T02:16:48;25.83;;;6.30;;
78489;SDS011;67776;52.012;4.736;2023-07-31T02:19:13;23.83;;;6.40;;
78489;SDS011;67776;52.012;4.736;2023-07-31T02:21:38;32.43;;;7.50;;
78489;SDS011;67776;52.012;4.736;2023-07-31T02:24:04;24.73;;;7.43;;
78489;SDS011;67776;52.012;4.736;2023-07-31T02:26:29;23.08;;;6.28;;
78489;SDS011;67776;52.012;4.736;2023-07-31T02:28:54;29.37;;;7.17;;
78489;SDS011;67776;52.012;4.736;2023-07-31T02:31:20;36.63;;;7.60;;
78489;SDS011;67776;52.012;4.736;2023-07-31T02:33:45;27.00;;;6.83;;
78489;SDS011;67776;52.012;4.736;2023-07-31T02:36:10;24.43;;;6.27;;
78489;SDS011;67776;52.012;4.736;2023-07-31T02:38:36;31.13;;;7.43;;
78489;SDS011;67776;52.012;4.736;2023-07-31T02:41:01;31.17;;;6.85;;
78489;SDS011;67776;52.012;4.736;2023-07-31T02:43:26;25.33;;;6.80;;
78489;SDS011;67776;52.012;4.736;2023-07-31T02:45:52;28.27;;;6.30;;
78489;SDS011;67776;52.012;4.736;2023-07-31T02:48:18;24.17;;;5.75;;
78489;SDS011;67776;52.012;4.736;2023-07-31T02:50:44;25.03;;;5.67;;
78489;SDS011;67776;52.012;4.736;2023-07-31T02:53:09;26.40;;;5.70;;
78489;SDS011;67776;52.012;4.736;2023-07-31T02:55:35;21.50;;;5.37;;
78489;SDS011;67776;52.012;4.736;2023-07-31T02:58:00;23.00;;;6.70;;
78489;SDS011;67776;52.012;4.736;2023-07-31T03:00:25;20.00;;;5.63;;
78489;SDS011;67776;52.012;4.736;2023-07-31T03:02:51;25.23;;;5.80;;
78489;SDS011;67776;52.012;4.736;2023-07-31T03:05:16;26.70;;;6.43;;
78489;SDS011;67776;52.012;4.736;2023-07-31T03:07:41;23.77;;;5.63;;
78489;SDS011;67776;52.012;4.736;2023-07-31T03:10:07;23.73;;;5.53;;
78489;SDS011;67776;52.012;4.736;2023-07-31T03:12:33;19.42;;;5.55;;
78489;SDS011;67776;52.012;4.736;2023-07-31T03:14:58;19.40;;;5.83;;
78489;SDS011;67776;52.012;4.736;2023-07-31T03:17:23;20.33;;;5.40;;
78489;SDS011;67776;52.012;4.736;2023-07-31T03:19:49;24.57;;;5.57;;
78489;SDS011;67776;52.012;4.736;2023-07-31T03:22:14;25.73;;;5.97;;
78489;SDS011;67776;52.012;4.736;2023-07-31T03:24:39;21.63;;;5.70;;
78489;SDS011;67776;52.012;4.736;2023-07-31T03:27:05;24.77;;;5.40;;
78489;SDS011;67776;52.012;4.736;2023-07-31T03:29:30;22.35;;;5.53;;
78489;SDS011;67776;52.012;4.736;2023-07-31T03:31:55;23.73;;;5.30;;
78489;SDS011;67776;52.012;4.736;2023-07-31T03:34:21;17.73;;;5.73;;
78489;SDS011;67776;52.012;4.736;2023-07-31T03:36:47;23.25;;;6.72;;
78489;SDS011;67776;52.012;4.736;2023-07-31T03:39:12;24.90;;;6.07;;
78489;SDS011;67776;52.012;4.736;2023-07-31T03:41:37;25.90;;;5.80;;
78489;SDS011;67776;52.012;4.736;2023-07-31T03:44:02;22.00;;;6.73;;
78489;SDS011;67776;52.012;4.736;2023-07-31T03:46:28;20.00;;;5.70;;
78489;SDS011;67776;52.012;4.736;2023-07-31T03:48:53;19.20;;;5.70;;
78489;SDS011;67776;52.012;4.736;2023-07-31T03:51:19;20.07;;;5.90;;
78489;SDS011;67776;52.012;4.736;2023-07-31T03:53:44;21.65;;;5.88;;
78489;SDS011;67776;52.012;4.736;2023-07-31T03:56:10;21.57;;;6.07;;
78489;SDS011;67776;52.012;4.736;2023-07-31T03:58:35;23.20;;;6.70;;
78489;SDS011;67776;52.012;4.736;2023-07-31T04:01:02;27.90;;;6.40;;
78489;SDS011;67776;52.012;4.736;2023-07-31T04:03:27;22.38;;;6.28;;
78489;SDS011;67776;52.012;4.736;2023-07-31T04:05:54;25.30;;;6.80;;
78489;SDS011;67776;52.012;4.736;2023-07-31T04:08:23;26.70;;;6.90;;
78489;SDS011;67776;52.012;4.736;2023-07-31T04:10:48;24.80;;;6.80;;
78489;SDS011;67776;52.012;4.736;2023-07-31T04:13:14;23.60;;;6.60;;
78489;SDS011;67776;52.012;4.736;2023-07-31T04:15:40;25.27;;;7.03;;
78489;SDS011;67776;52.012;4.736;2023-07-31T04:18:05;21.92;;;7.07;;
78489;SDS011;67776;52.012;4.736;2023-07-31T04:20:30;20.97;;;6.27;;
78489;SDS011;67776;52.012;4.736;2023-07-31T04:22:56;20.23;;;6.50;;
78489;SDS011;67776;52.012;4.736;2023-07-31T04:25:21;24.50;;;7.00;;
78489;SDS011;67776;52.012;4.736;2023-07-31T04:27:46;21.73;;;6.77;;
78489;SDS011;67776;52.012;4.736;2023-07-31T04:30:12;23.40;;;6.60;;
78489;SDS011;67776;52.012;4.736;2023-07-31T04:32:37;17.43;;;6.13;;
78489;SDS011;67776;52.012;4.736;2023-07-31T04:35:03;21.13;;;5.77;;
78489;SDS011;67776;52.012;4.736;2023-07-31T04:37:28;16.73;;;5.07;;
78489;SDS011;67776;52.012;4.736;2023-07-31T04:39:54;19.67;;;6.00;;
78489;SDS011;67776;52.012;4.736;2023-07-31T04:42:19;16.63;;;5.73;;
78489;SDS011;67776;52.012;4.736;2023-07-31T04:44:44;16.80;;;5.80;;
78489;SDS011;67776;52.012;4.736;2023-07-31T04:47:09;18.52;;;5.93;;
78489;SDS011;67776;52.012;4.736;2023-07-31T04:49:35;23.10;;;6.37;;
78489;SDS011;67776;52.012;4.736;2023-07-31T04:52:00;16.00;;;5.87;;
78489;SDS011;67776;52.012;4.736;2023-07-31T04:54:26;20.77;;;6.67;;
78489;SDS011;67776;52.012;4.736;2023-07-31T04:56:51;16.97;;;6.20;;
78489;SDS011;67776;52.012;4.736;2023-07-31T04:59:17;18.67;;;6.22;;
78489;SDS011;67776;52.012;4.736;2023-07-31T05:01:42;17.70;;;5.93;;
78489;SDS011;67776;52.012;4.736;2023-07-31T05:04:10;17.38;;;6.20;;
78489;SDS011;67776;52.012;4.736;2023-07-31T05:06:37;16.75;;;5.85;;
78489;SDS011;67776;52.012;4.736;2023-07-31T05:09:02;17.10;;;5.63;;
78489;SDS011;67776;52.012;4.736;2023-07-31T05:11:28;15.57;;;5.13;;
78489;SDS011;67776;52.012;4.736;2023-07-31T05:13:53;19.67;;;5.27;;
78489;SDS011;67776;52.012;4.736;2023-07-31T05:16:18;17.47;;;5.40;;
78489;SDS011;67776;52.012;4.736;2023-07-31T05:18:44;19.13;;;5.67;;
78489;SDS011;67776;52.012;4.736;2023-07-31T05:21:09;20.45;;;5.40;;
78489;SDS011;67776;52.012;4.736;2023-07-31T05:23:34;17.20;;;4.93;;
78489;SDS011;67776;52.012;4.736;2023-07-31T05:26:06;21.97;;;5.07;;
78489;SDS011;67776;52.012;4.736;2023-07-31T05:28:34;17.58;;;5.45;;
78489;SDS011;67776;52.012;4.736;2023-07-31T05:31:00;18.40;;;5.20;;
78489;SDS011;67776;52.012;4.736;2023-07-31T05:33:26;20.17;;;5.07;;
78489;SDS011;67776;52.012;4.736;2023-07-31T05:35:51;15.33;;;4.57;;
78489;SDS011;67776;52.012;4.736;2023-07-31T05:38:16;15.23;;;4.82;;
78489;SDS011;67776;52.012;4.736;2023-07-31T05:40:42;16.13;;;4.73;;
78489;SDS011;67776;52.012;4.736;2023-07-31T05:43:08;17.80;;;5.10;;
78489;SDS011;67776;52.012;4.736;2023-07-31T05:45:34;15.43;;;4.70;;
78489;SDS011;67776;52.012;4.736;2023-07-31T05:47:59;19.38;;;4.90;;
78489;SDS011;67776;52.012;4.736;2023-07-31T05:50:25;10.63;;;4.13;;
78489;SDS011;67776;52.012;4.736;2023-07-31T05:52:50;13.53;;;4.50;;
78489;SDS011;67776;52.012;4.736;2023-07-31T05:55:16;11.88;;;4.40;;
78489;SDS011;67776;52.012;4.736;2023-07-31T05:57:41;14.40;;;4.57;;
78489;SDS011;67776;52.012;4.736;2023-07-31T06:00:07;13.47;;;4.57;;
78489;SDS011;67776;52.012;4.736;2023-07-31T06:02:33;13.30;;;4.78;;
78489;SDS011;67776;52.012;4.736;2023-07-31T06:05:01;10.23;;;4.37;;
78489;SDS011;67776;52.012;4.736;2023-07-31T06:07:27;11.48;;;4.40;;
78489;SDS011;67776;52.012;4.736;2023-07-31T06:09:52;13.10;;;4.40;;
78489;SDS011;67776;52.012;4.736;2023-07-31T06:12:19;11.03;;;4.00;;
78489;SDS011;67776;52.012;4.736;2023-07-31T06:14:45;10.90;;;4.35;;
78489;SDS011;67776;52.012;4.736;2023-07-31T06:17:10;16.43;;;4.60;;
78489;SDS011;67776;52.012;4.736;2023-07-31T06:19:36;16.63;;;4.60;;
78489;SDS011;67776;52.012;4.736;2023-07-31T06:22:01;10.03;;;4.40;;
78489;SDS011;67776;52.012;4.736;2023-07-31T06:24:27;14.47;;;5.07;;
78489;SDS011;67776;52.012;4.736;2023-07-31T06:26:53;11.30;;;4.25;;
78489;SDS011;67776;52.012;4.736;2023-07-31T06:29:18;14.53;;;4.50;;
78489;SDS011;67776;52.012;4.736;2023-07-31T06:31:44;11.67;;;4.87;;
78489;SDS011;67776;52.012;4.736;2023-07-31T06:34:09;12.23;;;4.87;;
78489;SDS011;67776;52.012;4.736;2023-07-31T06:36:35;9.73;;;4.13;;
78489;SDS011;67776;52.012;4.736;2023-07-31T06:39:00;14.47;;;5.03;;
78489;SDS011;67776;52.012;4.736;2023-07-31T06:41:25;11.60;;;4.37;;
78489;SDS011;67776;52.012;4.736;2023-07-31T06:43:51;12.47;;;4.33;;
78489;SDS011;67776;52.012;4.736;2023-07-31T06:46:16;12.37;;;3.87;;
78489;SDS011;67776;52.012;4.736;2023-07-31T06:48:41;9.87;;;3.57;;
78489;SDS011;67776;52.012;4.736;2023-07-31T06:51:07;10.70;;;3.63;;
78489;SDS011;67776;52.012;4.736;2023-07-31T06:53:32;8.73;;;3.57;;
78489;SDS011;67776;52.012;4.736;2023-07-31T06:55:57;9.63;;;3.43;;
78489;SDS011;67776;52.012;4.736;2023-07-31T06:58:23;10.47;;;3.40;;
78489;SDS011;67776;52.012;4.736;2023-07-31T07:00:48;10.77;;;3.53;;
78489;SDS011;67776;52.012;4.736;2023-07-31T07:03:17;10.57;;;3.27;;
78489;SDS011;67776;52.012;4.736;2023-07-31T07:05:43;9.05;;;3.05;;
78489;SDS011;67776;52.012;4.736;2023-07-31T07:08:08;12.27;;;3.43;;
78489;SDS011;67776;52.012;4.736;2023-07-31T07:10:34;9.27;;;3.27;;
78489;SDS011;67776;52.012;4.736;2023-07-31T07:12:59;10.30;;;3.10;;
78489;SDS011;67776;52.012;4.736;2023-07-31T07:15:24;8.53;;;3.10;;
78489;SDS011;67776;52.012;4.736;2023-07-31T07:17:50;8.60;;;3.13;;
78489;SDS011;67776;52.012;4.736;2023-07-31T07:20:15;8.63;;;3.20;;
78489;SDS011;67776;52.012;4.736;2023-07-31T07:22:41;9.27;;;2.80;;
78489;SDS011;67776;52.012;4.736;2023-07-31T07:25:08;6.85;;;3.03;;
78489;SDS011;67776;52.012;4.736;2023-07-31T07:27:33;7.18;;;2.60;;
78489;SDS011;67776;52.012;4.736;2023-07-31T07:29:59;7.17;;;3.00;;
78489;SDS011;67776;52.012;4.736;2023-07-31T07:32:24;6.30;;;2.60;;
78489;SDS011;67776;52.012;4.736;2023-07-31T07:34:50;5.50;;;2.27;;
78489;SDS011;67776;52.012;4.736;2023-07-31T07:37:15;6.63;;;2.40;;
78489;SDS011;67776;52.012;4.736;2023-07-31T07:39:41;7.67;;;3.00;;
78489;SDS011;67776;52.012;4.736;2023-07-31T07:42:06;6.63;;;2.70;;
78489;SDS011;67776;52.012;4.736;2023-07-31T07:44:32;6.95;;;2.78;;
78489;SDS011;67776;52.012;4.736;2023-07-31T07:46:57;8.33;;;2.70;;
78489;SDS011;67776;52.012;4.736;2023-07-31T07:49:22;6.00;;;2.50;;
78489;SDS011;67776;52.012;4.736;2023-07-31T07:51:48;7.33;;;2.90;;
78489;SDS011;67776;52.012;4.736;2023-07-31T07:54:14;6.55;;;2.60;;
78489;SDS011;67776;52.012;4.736;2023-07-31T07:56:41;5.57;;;2.33;;
78489;SDS011;67776;52.012;4.736;2023-07-31T07:59:07;5.82;;;2.55;;
78489;SDS011;67776;52.012;4.736;2023-07-31T08:01:32;11.67;;;3.37;;
78489;SDS011;67776;52.012;4.736;2023-07-31T08:03:58;8.73;;;2.67;;
78489;SDS011;67776;52.012;4.736;2023-07-31T08:06:23;8.00;;;2.50;;
78489;SDS011;67776;52.012;4.736;2023-07-31T08:08:49;5.78;;;2.03;;
78489;SDS011;67776;52.012;4.736;2023-07-31T08:11:14;7.47;;;2.10;;
78489;SDS011;67776;52.012;4.736;2023-07-31T08:13:40;5.07;;;1.97;;
78489;SDS011;67776;52.012;4.736;2023-07-31T08:16:05;5.27;;;1.80;;
78489;SDS011;67776;52.012;4.736;2023-07-31T08:18:31;5.90;;;1.90;;
78489;SDS011;67776;52.012;4.736;2023-07-31T08:20:57;5.60;;;2.10;;
78489;SDS011;67776;52.012;4.736;2023-07-31T08:23:22;5.70;;;1.90;;
78489;SDS011;67776;52.012;4.736;2023-07-31T08:25:47;4.23;;;1.50;;
78489;SDS011;67776;52.012;4.736;2023-07-31T08:28:14;5.27;;;1.70;;
78489;SDS011;67776;52.012;4.736;2023-07-31T08:30:40;5.13;;;1.70;;
78489;SDS011;67776;52.012;4.736;2023-07-31T08:33:06;3.20;;;1.30;;
78489;SDS011;67776;52.012;4.736;2023-07-31T08:35:32;4.37;;;1.47;;
78489;SDS011;67776;52.012;4.736;2023-07-31T08:37:57;4.00;;;1.40;;
78489;SDS011;67776;52.012;4.736;2023-07-31T08:40:22;3.83;;;1.27;;
78489;SDS011;67776;52.012;4.736;2023-07-31T08:42:49;3.60;;;1.10;;
78489;SDS011;67776;52.012;4.736;2023-07-31T08:45:18;4.05;;;1.30;;
78489;SDS011;67776;52.012;4.736;2023-07-31T08:47:45;3.47;;;1.40;;
78489;SDS011;67776;52.012;4.736;2023-07-31T08:50:12;3.92;;;1.10;;
78489;SDS011;67776;52.012;4.736;2023-07-31T08:52:38;3.35;;;1.30;;
78489;SDS011;67776;52.012;4.736;2023-07-31T08:55:04;4.50;;;1.40;;
78489;SDS011;67776;52.012;4.736;2023-07-31T08:57:31;3.00;;;1.02;;
78489;SDS011;67776;52.012;4.736;2023-07-31T08:59:58;6.72;;;1.40;;
78489;SDS011;67776;52.012;4.736;2023-07-31T09:02:24;5.20;;;1.40;;
78489;SDS011;67776;52.012;4.736;2023-07-31T09:04:56;3.92;;;1.10;;
78489;SDS011;67776;52.012;4.736;2023-07-31T09:07:22;3.38;;;1.30;;
78489;SDS011;67776;52.012;4.736;2023-07-31T09:09:49;4.07;;;1.45;;
78489;SDS011;67776;52.012;4.736;2023-07-31T09:12:15;3.90;;;1.50;;
78489;SDS011;67776;52.012;4.736;2023-07-31T09:14:40;3.63;;;1.30;;
78489;SDS011;67776;52.012;4.736;2023-07-31T09:17:08;4.00;;;1.60;;
78489;SDS011;67776;52.012;4.736;2023-07-31T09:19:35;4.23;;;1.40;;
78489;SDS011;67776;52.012;4.736;2023-07-31T09:22:06;4.28;;;1.60;;
78489;SDS011;67776;52.012;4.736;2023-07-31T09:24:33;4.38;;;1.65;;
78489;SDS011;67776;52.012;4.736;2023-07-31T09:26:59;5.65;;;1.80;;
78489;SDS011;67776;52.012;4.736;2023-07-31T09:29:29;6.78;;;2.25;;
78489;SDS011;67776;52.012;4.736;2023-07-31T09:31:55;6.37;;;2.60;;
78489;SDS011;67776;52.012;4.736;2023-07-31T09:34:20;7.13;;;2.42;;
78489;SDS011;67776;52.012;4.736;2023-07-31T09:36:54;5.93;;;2.60;;
78489;SDS011;67776;52.012;4.736;2023-07-31T09:39:19;5.50;;;2.40;;
78489;SDS011;67776;52.012;4.736;2023-07-31T09:41:46;6.70;;;2.53;;
78489;SDS011;67776;52.012;4.736;2023-07-31T09:44:19;6.22;;;2.47;;
78489;SDS011;67776;52.012;4.736;2023-07-31T09:46:45;6.43;;;2.37;;
78489;SDS011;67776;52.012;4.736;2023-07-31T09:49:11;6.13;;;2.65;;
78489;SDS011;67776;52.012;4.736;2023-07-31T09:51:38;7.28;;;3.00;;
78489;SDS011;67776;52.012;4.736;2023-07-31T09:54:14;6.80;;;3.10;;
78489;SDS011;67776;52.012;4.736;2023-07-31T09:56:42;7.07;;;3.35;;
78489;SDS011;67776;52.012;4.736;2023-07-31T09:59:10;8.57;;;3.33;;
78489;SDS011;67776;52.012;4.736;2023-07-31T10:01:43;6.72;;;3.10;;
78489;SDS011;67776;52.012;4.736;2023-07-31T10:04:11;6.78;;;3.28;;
78489;SDS011;67776;52.012;4.736;2023-07-31T10:06:38;8.47;;;3.30;;
78489;SDS011;67776;52.012;4.736;2023-07-31T10:09:05;7.03;;;3.30;;
78489;SDS011;67776;52.012;4.736;2023-07-31T10:11:38;9.68;;;3.40;;
78489;SDS011;67776;52.012;4.736;2023-07-31T10:14:07;6.80;;;3.35;;
78489;SDS011;67776;52.012;4.736;2023-07-31T10:16:34;8.75;;;3.30;;
78489;SDS011;67776;52.012;4.736;2023-07-31T10:19:00;7.00;;;2.93;;
78489;SDS011;67776;52.012;4.736;2023-07-31T10:21:26;6.75;;;3.20;;
78489;SDS011;67776;52.012;4.736;2023-07-31T10:23:52;8.50;;;2.72;;
78489;SDS011;67776;52.012;4.736;2023-07-31T10:26:19;7.53;;;2.83;;
78489;SDS011;67776;52.012;4.736;2023-07-31T10:28:46;9.00;;;2.80;;
78489;SDS011;67776;52.012;4.736;2023-07-31T10:31:13;5.20;;;2.60;;
78489;SDS011;67776;52.012;4.736;2023-07-31T10:33:39;6.10;;;2.58;;
78489;SDS011;67776;52.012;4.736;2023-07-31T10:36:17;6.15;;;3.00;;
78489;SDS011;67776;52.012;4.736;2023-07-31T10:38:43;8.27;;;3.88;;
78489;SDS011;67776;52.012;4.736;2023-07-31T10:41:09;8.53;;;3.80;;
78489;SDS011;67776;52.012;4.736;2023-07-31T10:43:35;11.32;;;3.97;;
78489;SDS011;67776;52.012;4.736;2023-07-31T10:46:06;8.98;;;3.72;;
78489;SDS011;67776;52.012;4.736;2023-07-31T10:48:33;13.50;;;4.40;;
78489;SDS011;67776;52.012;4.736;2023-07-31T10:50:59;11.27;;;4.85;;
78489;SDS011;67776;52.012;4.736;2023-07-31T10:53:26;10.97;;;4.83;;
78489;SDS011;67776;52.012;4.736;2023-07-31T10:55:59;10.35;;;4.60;;
78489;SDS011;67776;52.012;4.736;2023-07-31T10:58:25;11.05;;;4.40;;
78489;SDS011;67776;52.012;4.736;2023-07-31T11:00:54;9.57;;;4.10;;
78489;SDS011;67776;52.012;4.736;2023-07-31T11:03:24;9.93;;;3.73;;
78489;SDS011;67776;52.012;4.736;2023-07-31T11:08:34;11.52;;;3.60;;
78489;SDS011;67776;52.012;4.736;2023-07-31T11:15:54;10.63;;;4.10;;
78489;SDS011;67776;52.012;4.736;2023-07-31T11:18:20;11.27;;;4.20;;
78489;SDS011;67776;52.012;4.736;2023-07-31T11:20:45;12.53;;;4.60;;
78489;SDS011;67776;52.012;4.736;2023-07-31T11:23:11;12.13;;;5.07;;
78489;SDS011;67776;52.012;4.736;2023-07-31T11:25:37;13.07;;;5.28;;
78489;SDS011;67776;52.012;4.736;2023-07-31T11:28:08;13.20;;;5.50;;
78489;SDS011;67776;52.012;4.736;2023-07-31T11:30:36;12.57;;;5.50;;
78489;SDS011;67776;52.012;4.736;2023-07-31T11:33:02;13.82;;;5.57;;
78489;SDS011;67776;52.012;4.736;2023-07-31T11:35:29;13.88;;;5.75;;
78489;SDS011;67776;52.012;4.736;2023-07-31T11:38:02;12.82;;;5.82;;
78489;SDS011;67776;52.012;4.736;2023-07-31T11:40:27;14.50;;;6.43;;
78489;SDS011;67776;52.012;4.736;2023-07-31T11:42:57;14.23;;;6.40;;
78489;SDS011;67776;52.012;4.736;2023-07-31T11:45:26;13.95;;;6.60;;
78489;SDS011;67776;52.012;4.736;2023-07-31T11:47:55;14.75;;;6.15;;
78489;SDS011;67776;52.012;4.736;2023-07-31T11:50:21;17.60;;;7.63;;
78489;SDS011;67776;52.012;4.736;2023-07-31T11:52:49;13.65;;;7.30;;
78489;SDS011;67776;52.012;4.736;2023-07-31T11:55:22;14.57;;;6.53;;
78489;SDS011;67776;52.012;4.736;2023-07-31T11:57:48;15.00;;;6.30;;
78489;SDS011;67776;52.012;4.736;2023-07-31T12:00:18;14.23;;;6.45;;
78489;SDS011;67776;52.012;4.736;2023-07-31T12:02:44;15.82;;;7.15;;
78489;SDS011;67776;52.012;4.736;2023-07-31T12:05:10;15.47;;;7.60;;
78489;SDS011;67776;52.012;4.736;2023-07-31T12:07:44;12.65;;;6.82;;
78489;SDS011;67776;52.012;4.736;2023-07-31T12:10:29;15.35;;;6.75;;
78489;SDS011;67776;52.012;4.736;2023-07-31T12:15:33;13.35;;;7.55;;
78489;SDS011;67776;52.012;4.736;2023-07-31T12:18:07;17.67;;;6.90;;
78489;SDS011;67776;52.012;4.736;2023-07-31T12:20:34;14.60;;;6.32;;
78489;SDS011;67776;52.012;4.736;2023-07-31T12:23:00;26.58;;;6.25;;
78489;SDS011;67776;52.012;4.736;2023-07-31T12:25:30;13.50;;;6.23;;
78489;SDS011;67776;52.012;4.736;2023-07-31T12:27:56;11.57;;;4.85;;
78489;SDS011;67776;52.012;4.736;2023-07-31T12:30:28;12.77;;;5.53;;
78489;SDS011;67776;52.012;4.736;2023-07-31T12:32:54;11.15;;;5.05;;
78489;SDS011;67776;52.012;4.736;2023-07-31T12:35:20;10.70;;;4.90;;
78489;SDS011;67776;52.012;4.736;2023-07-31T12:37:45;11.67;;;4.60;;
78489;SDS011;67776;52.012;4.736;2023-07-31T12:40:11;11.37;;;4.43;;
78489;SDS011;67776;52.012;4.736;2023-07-31T12:42:36;8.88;;;4.90;;
78489;SDS011;67776;52.012;4.736;2023-07-31T12:45:02;9.07;;;4.17;;
78489;SDS011;67776;52.012;4.736;2023-07-31T12:47:28;9.88;;;4.70;;
78489;SDS011;67776;52.012;4.736;2023-07-31T12:49:54;10.67;;;4.10;;
78489;SDS011;67776;52.012;4.736;2023-07-31T12:52:19;12.67;;;5.57;;
78489;SDS011;67776;52.012;4.736;2023-07-31T12:54:45;13.02;;;4.90;;
78489;SDS011;67776;52.012;4.736;2023-07-31T12:57:11;10.03;;;4.77;;
78489;SDS011;67776;52.012;4.736;2023-07-31T12:59:36;9.05;;;5.05;;
78489;SDS011;67776;52.012;4.736;2023-07-31T13:02:02;13.03;;;5.27;;
78489;SDS011;67776;52.012;4.736;2023-07-31T13:04:27;8.67;;;4.00;;
78489;SDS011;67776;52.012;4.736;2023-07-31T13:06:52;8.30;;;4.73;;
78489;SDS011;67776;52.012;4.736;2023-07-31T13:09:18;9.70;;;3.70;;
78489;SDS011;67776;52.012;4.736;2023-07-31T13:11:43;10.23;;;4.00;;
78489;SDS011;67776;52.012;4.736;2023-07-31T13:14:09;7.03;;;2.87;;
78489;SDS011;67776;52.012;4.736;2023-07-31T13:16:35;6.05;;;2.53;;
78489;SDS011;67776;52.012;4.736;2023-07-31T13:19:00;7.23;;;2.40;;
78489;SDS011;67776;52.012;4.736;2023-07-31T13:21:26;6.30;;;2.53;;
78489;SDS011;67776;52.012;4.736;2023-07-31T13:23:51;5.80;;;2.67;;
78489;SDS011;67776;52.012;4.736;2023-07-31T13:26:17;7.60;;;3.37;;
78489;SDS011;67776;52.012;4.736;2023-07-31T13:28:42;7.07;;;3.10;;
78489;SDS011;67776;52.012;4.736;2023-07-31T13:31:08;5.40;;;2.50;;
78489;SDS011;67776;52.012;4.736;2023-07-31T13:33:33;6.57;;;2.60;;
78489;SDS011;67776;52.012;4.736;2023-07-31T13:35:58;5.33;;;2.60;;
78489;SDS011;67776;52.012;4.736;2023-07-31T13:38:24;6.27;;;2.43;;
78489;SDS011;67776;52.012;4.736;2023-07-31T13:40:49;7.00;;;2.60;;
78489;SDS011;67776;52.012;4.736;2023-07-31T13:43:15;6.03;;;2.55;;
78489;SDS011;67776;52.012;4.736;2023-07-31T13:45:40;5.27;;;2.10;;
78489;SDS011;67776;52.012;4.736;2023-07-31T13:48:05;7.03;;;2.40;;
78489;SDS011;67776;52.012;4.736;2023-07-31T13:50:31;4.73;;;2.13;;
78489;SDS011;67776;52.012;4.736;2023-07-31T13:52:56;5.97;;;2.07;;
78489;SDS011;67776;52.012;4.736;2023-07-31T13:55:25;4.57;;;1.98;;
78489;SDS011;67776;52.012;4.736;2023-07-31T13:57:50;4.60;;;1.98;;
78489;SDS011;67776;52.012;4.736;2023-07-31T14:00:16;5.80;;;2.43;;
78489;SDS011;67776;52.012;4.736;2023-07-31T14:02:41;5.63;;;2.50;;
78489;SDS011;67776;52.012;4.736;2023-07-31T14:05:09;6.55;;;2.10;;
78489;SDS011;67776;52.012;4.736;2023-07-31T14:07:35;6.35;;;2.58;;
78489;SDS011;67776;52.012;4.736;2023-07-31T14:10:00;6.97;;;2.53;;
78489;SDS011;67776;52.012;4.736;2023-07-31T14:12:26;6.73;;;2.60;;
78489;SDS011;67776;52.012;4.736;2023-07-31T14:14:54;4.97;;;2.38;;
78489;SDS011;67776;52.012;4.736;2023-07-31T14:17:19;5.33;;;2.20;;
78489;SDS011;67776;52.012;4.736;2023-07-31T14:19:45;5.55;;;2.17;;
78489;SDS011;67776;52.012;4.736;2023-07-31T14:22:10;5.23;;;2.03;;
78489;SDS011;67776;52.012;4.736;2023-07-31T14:24:36;4.67;;;2.00;;
78489;SDS011;67776;52.012;4.736;2023-07-31T14:27:01;4.87;;;1.83;;
78489;SDS011;67776;52.012;4.736;2023-07-31T14:29:26;5.17;;;1.70;;
78489;SDS011;67776;52.012;4.736;2023-07-31T14:31:52;4.73;;;1.73;;
78489;SDS011;67776;52.012;4.736;2023-07-31T14:34:17;4.87;;;1.97;;
78489;SDS011;67776;52.012;4.736;2023-07-31T14:36:43;5.67;;;2.40;;
78489;SDS011;67776;52.012;4.736;2023-07-31T14:39:09;9.98;;;3.00;;
78489;SDS011;67776;52.012;4.736;2023-07-31T14:41:34;7.60;;;2.73;;
78489;SDS011;67776;52.012;4.736;2023-07-31T14:44:00;7.97;;;3.00;;
78489;SDS011;67776;52.012;4.736;2023-07-31T14:46:25;7.80;;;2.80;;
78489;SDS011;67776;52.012;4.736;2023-07-31T14:48:50;7.90;;;3.40;;
78489;SDS011;67776;52.012;4.736;2023-07-31T14:51:16;7.17;;;2.97;;
78489;SDS011;67776;52.012;4.736;2023-07-31T14:53:42;5.50;;;2.50;;